createdAt,value
2018-11-06T00:00:00.091Z,15.28
2018-11-06T00:02:28.601Z,15.13
2018-11-06T00:05:02.214Z,12.23
2018-11-06T00:07:30.441Z,12.97
2018-11-06T00:09:58.675Z,15.70
2018-11-06T00:12:26.930Z,13.47
2018-11-06T00:14:57.931Z,14.15
2018-11-06T00:17:26.145Z,13.07
2018-11-06T00:19:54.371Z,14.03
2018-11-06T00:22:22.677Z,14.33
2018-11-06T00:24:50.979Z,13.13
2018-11-06T00:27:19.188Z,15.03
2018-11-06T00:29:47.478Z,12.78
2018-11-06T00:32:15.776Z,15.13
2018-11-06T00:34:44.070Z,15.53
2018-11-06T00:37:12.280Z,13.20
2018-11-06T00:39:40.525Z,11.50
2018-11-06T00:42:08.770Z,13.23
2018-11-06T00:44:37.081Z,13.72
2018-11-06T00:47:05.659Z,11.40
2018-11-06T00:49:33.914Z,15.18
2018-11-06T00:52:02.168Z,13.78
2018-11-06T00:54:30.917Z,14.05
2018-11-06T00:56:59.182Z,13.20
2018-11-06T00:59:28.292Z,12.28
2018-11-06T01:01:56.718Z,13.37
2018-11-06T01:04:24.925Z,11.55
2018-11-06T01:06:53.121Z,15.60
2018-11-06T01:09:21.443Z,14.87
2018-11-06T01:11:49.635Z,12.17
2018-11-06T01:14:17.863Z,15.40
2018-11-06T01:16:46.498Z,15.10
2018-11-06T01:19:14.880Z,14.20
2018-11-06T01:21:43.118Z,13.43
2018-11-06T01:24:18.064Z,11.35
2018-11-06T01:26:46.319Z,14.93
2018-11-06T01:29:14.811Z,15.70
2018-11-06T01:31:43.045Z,13.00
2018-11-06T01:34:11.311Z,14.20
2018-11-06T01:36:39.572Z,13.10
2018-11-06T01:39:08.793Z,13.50
2018-11-06T01:41:37.026Z,12.17
2018-11-06T01:44:05.401Z,13.05
2018-11-06T01:46:34.031Z,15.80
2018-11-06T01:49:02.291Z,14.30
2018-11-06T01:51:30.494Z,14.80
2018-11-06T01:53:58.771Z,15.43
2018-11-06T01:56:26.945Z,15.93
2018-11-06T01:58:55.161Z,13.80
2018-11-06T02:01:24.383Z,16.50
2018-11-06T02:03:52.610Z,15.08
2018-11-06T02:06:20.836Z,14.80
2018-11-06T02:08:49.048Z,14.23
2018-11-06T02:11:17.285Z,16.37
2018-11-06T02:13:45.610Z,13.35
2018-11-06T02:16:13.804Z,14.28
2018-11-06T02:18:42.122Z,17.82
2018-11-06T02:21:10.315Z,16.40
2018-11-06T02:23:38.538Z,17.50
2018-11-06T02:26:06.803Z,14.83
2018-11-06T02:28:35.247Z,16.20
2018-11-06T02:31:03.474Z,15.93
2018-11-06T02:33:31.751Z,14.18
2018-11-06T02:35:59.968Z,14.23
2018-11-06T02:38:28.218Z,15.75
2018-11-06T02:40:56.477Z,14.70
2018-11-06T02:43:24.695Z,13.35
2018-11-06T02:45:52.908Z,14.70
2018-11-06T02:48:21.168Z,14.83
2018-11-06T02:50:49.380Z,14.43
2018-11-06T02:53:17.743Z,14.40
2018-11-06T02:55:46.030Z,16.00
2018-11-06T02:58:14.235Z,14.28
2018-11-06T03:00:42.479Z,13.37
2018-11-06T03:03:10.687Z,12.53
2018-11-06T03:05:38.943Z,13.17
2018-11-06T03:08:07.200Z,16.02
2018-11-06T03:10:35.609Z,14.87
2018-11-06T03:13:03.871Z,14.75
2018-11-06T03:15:32.126Z,14.57
2018-11-06T03:18:00.391Z,14.20
2018-11-06T03:20:28.627Z,15.07
2018-11-06T03:22:56.850Z,11.10
2018-11-06T03:25:25.071Z,16.15
2018-11-06T03:27:53.282Z,16.10
2018-11-06T03:30:21.509Z,14.33
2018-11-06T03:32:49.769Z,12.47
2018-11-06T03:35:18.007Z,15.88
2018-11-06T03:37:46.267Z,14.15
2018-11-06T03:40:14.535Z,13.98
2018-11-06T03:42:43.429Z,11.97
2018-11-06T03:45:12.528Z,15.65
2018-11-06T03:47:40.829Z,14.30
2018-11-06T03:50:10.306Z,14.33
2018-11-06T03:52:38.600Z,15.48
2018-11-06T03:55:07.915Z,13.48
2018-11-06T03:57:36.208Z,14.83
2018-11-06T04:00:05.687Z,11.60
2018-11-06T04:02:34.352Z,14.35
2018-11-06T04:05:02.682Z,13.72
2018-11-06T04:07:30.895Z,13.07
2018-11-06T04:09:59.156Z,14.28
2018-11-06T04:12:27.453Z,13.63
2018-11-06T04:14:55.721Z,12.88
2018-11-06T04:17:23.951Z,13.98
2018-11-06T04:19:52.205Z,14.07
2018-11-06T04:22:20.446Z,11.77
2018-11-06T04:24:48.699Z,15.68
2018-11-06T04:27:16.971Z,13.72
2018-11-06T04:29:45.199Z,14.20
2018-11-06T04:32:13.425Z,14.30
2018-11-06T04:34:41.741Z,14.80
2018-11-06T04:37:10.028Z,15.23
2018-11-06T04:39:38.246Z,14.38
2018-11-06T04:42:06.559Z,15.20
2018-11-06T04:44:35.416Z,14.75
2018-11-06T04:47:03.615Z,14.70
2018-11-06T04:49:31.807Z,14.07
2018-11-06T04:52:00.107Z,14.38
2018-11-06T04:54:28.310Z,13.30
2018-11-06T04:56:56.527Z,11.93
2018-11-06T04:59:25.880Z,16.48
2018-11-06T05:01:54.137Z,12.93
2018-11-06T05:04:22.432Z,15.80
2018-11-06T05:06:50.725Z,15.67
2018-11-06T05:09:18.928Z,14.25
2018-11-06T05:11:47.134Z,11.93
2018-11-06T05:14:15.374Z,13.30
2018-11-06T05:16:43.605Z,13.62
2018-11-06T05:19:12.018Z,12.63
2018-11-06T05:21:40.222Z,11.93
2018-11-06T05:24:08.452Z,12.13
2018-11-06T05:26:37.087Z,12.83
2018-11-06T05:29:05.355Z,11.43
2018-11-06T05:31:33.539Z,14.77
2018-11-06T05:34:01.820Z,13.15
2018-11-06T05:36:30.077Z,15.25
2018-11-06T05:38:58.379Z,14.43
2018-11-06T05:41:26.545Z,13.47
2018-11-06T05:43:54.801Z,12.78
2018-11-06T05:46:23.027Z,14.07
2018-11-06T05:48:51.915Z,11.08
2018-11-06T05:51:20.120Z,12.33
2018-11-06T05:53:48.361Z,13.30
2018-11-06T05:56:16.580Z,11.20
2018-11-06T05:58:44.810Z,11.03
2018-11-06T06:01:13.024Z,10.95
2018-11-06T06:03:41.247Z,11.50
2018-11-06T06:06:09.472Z,13.70
2018-11-06T06:08:38.009Z,13.45
2018-11-06T06:11:06.681Z,10.07
2018-11-06T06:13:34.888Z,10.55
2018-11-06T06:16:03.122Z,12.17
2018-11-06T06:18:31.331Z,12.98
2018-11-06T06:20:59.586Z,11.63
2018-11-06T06:23:27.828Z,13.22
2018-11-06T06:25:56.084Z,11.73
2018-11-06T06:28:24.363Z,10.05
2018-11-06T06:30:52.676Z,10.03
2018-11-06T06:33:20.909Z,9.48
2018-11-06T06:35:49.105Z,9.60
2018-11-06T06:38:17.398Z,9.30
2018-11-06T06:40:46.851Z,10.33
2018-11-06T06:43:15.083Z,11.03
2018-11-06T06:45:43.320Z,9.83
2018-11-06T06:48:11.531Z,10.88
2018-11-06T06:50:39.875Z,9.87
2018-11-06T06:53:08.068Z,10.65
2018-11-06T06:55:36.272Z,11.75
2018-11-06T06:58:04.850Z,10.75
2018-11-06T07:00:34.246Z,9.93
2018-11-06T07:03:02.494Z,10.00
2018-11-06T07:05:30.714Z,10.20
2018-11-06T07:07:59.580Z,11.08
2018-11-06T07:10:27.806Z,12.20
2018-11-06T07:12:56.091Z,12.80
2018-11-06T07:15:31.141Z,10.78
2018-11-06T07:17:59.426Z,10.28
2018-11-06T07:20:27.631Z,10.67
2018-11-06T07:22:55.851Z,10.15
2018-11-06T07:25:24.156Z,11.10
2018-11-06T07:27:58.954Z,8.88
2018-11-06T07:30:27.207Z,8.40
2018-11-06T07:32:56.040Z,9.33
2018-11-06T07:35:24.450Z,10.60
2018-11-06T07:37:52.584Z,7.93
2018-11-06T07:40:21.234Z,9.43
2018-11-06T07:42:50.328Z,11.00
2018-11-06T07:45:20.569Z,9.37
2018-11-06T07:47:48.751Z,9.50
2018-11-06T07:50:17.125Z,8.17
2018-11-06T07:52:45.976Z,8.87
2018-11-06T07:55:15.450Z,11.10
2018-11-06T07:57:44.400Z,9.67
2018-11-06T08:00:16.915Z,8.80
2018-11-06T08:02:46.023Z,8.07
2018-11-06T08:05:14.643Z,8.27
2018-11-06T08:07:43.349Z,7.57
2018-11-06T08:10:11.684Z,7.17
2018-11-06T08:12:43.363Z,7.90
2018-11-06T08:15:12.320Z,9.40
2018-11-06T08:17:41.299Z,9.33
2018-11-06T08:20:09.522Z,7.70
2018-11-06T08:22:39.043Z,10.73
2018-11-06T08:25:08.808Z,7.97
2018-11-06T08:27:37.446Z,9.43
2018-11-06T08:30:06.521Z,6.63
2018-11-06T08:32:35.144Z,8.20
2018-11-06T08:35:03.461Z,8.83
2018-11-06T08:37:31.714Z,7.90
2018-11-06T08:39:59.914Z,8.77
2018-11-06T08:42:28.180Z,8.13
2018-11-06T08:44:56.362Z,6.93
2018-11-06T08:47:24.582Z,7.73
2018-11-06T08:49:52.870Z,7.73
2018-11-06T08:52:21.156Z,7.77
2018-11-06T08:54:49.426Z,7.60
2018-11-06T08:57:17.612Z,6.50
2018-11-06T08:59:45.954Z,7.60
2018-11-06T09:02:14.128Z,6.07
2018-11-06T09:04:42.534Z,6.60
2018-11-06T09:07:10.796Z,6.50
2018-11-06T09:09:39.128Z,7.20
2018-11-06T09:12:07.348Z,6.67
2018-11-06T09:14:35.626Z,9.70
2018-11-06T09:17:03.896Z,7.13
2018-11-06T09:19:32.065Z,6.10
2018-11-06T09:22:00.276Z,6.17
2018-11-06T09:24:28.484Z,8.07
2018-11-06T09:26:56.757Z,6.57
2018-11-06T09:29:26.323Z,5.63
2018-11-06T09:31:54.619Z,8.93
2018-11-06T09:34:22.866Z,6.93
2018-11-06T09:36:51.099Z,6.93
2018-11-06T09:39:19.300Z,6.87
2018-11-06T09:41:47.533Z,7.00
2018-11-06T09:44:15.756Z,7.90
2018-11-06T09:46:44.055Z,6.10
2018-11-06T09:49:12.381Z,7.27
2018-11-06T09:51:40.620Z,6.70
2018-11-06T09:54:08.839Z,7.40
2018-11-06T09:56:37.059Z,7.73
2018-11-06T09:59:05.383Z,7.70
2018-11-06T10:01:33.645Z,7.60
2018-11-06T10:04:01.844Z,6.90
2018-11-06T10:06:30.188Z,8.73
2018-11-06T10:08:58.330Z,7.90
2018-11-06T10:11:26.625Z,8.10
2018-11-06T10:13:54.760Z,8.77
2018-11-06T10:16:23.016Z,7.10
2018-11-06T10:18:52.261Z,7.83
2018-11-06T10:21:20.635Z,7.97
2018-11-06T10:23:48.742Z,6.60
2018-11-06T10:26:16.923Z,7.87
2018-11-06T10:28:45.142Z,9.60
2018-11-06T10:31:13.324Z,5.63
2018-11-06T10:33:41.560Z,6.60
2018-11-06T10:36:09.791Z,7.30
2018-11-06T10:38:38.007Z,7.47
2018-11-06T10:41:06.298Z,7.50
2018-11-06T10:43:34.542Z,7.40
2018-11-06T10:46:02.822Z,6.70
2018-11-06T10:48:31.153Z,7.03
2018-11-06T10:51:00.671Z,9.10
2018-11-06T10:53:28.911Z,6.43
2018-11-06T10:55:57.140Z,7.20
2018-11-06T10:58:25.377Z,8.80
2018-11-06T11:00:58.987Z,7.50
2018-11-06T11:03:28.177Z,6.60
2018-11-06T11:05:56.612Z,9.60
2018-11-06T11:08:24.844Z,8.20
2018-11-06T11:10:53.926Z,7.27
2018-11-06T11:13:22.261Z,6.17
2018-11-06T11:15:50.466Z,6.63
2018-11-06T11:18:18.701Z,6.43
2018-11-06T11:20:46.942Z,8.43
2018-11-06T11:23:15.159Z,6.03
2018-11-06T11:25:43.443Z,5.93
2018-11-06T11:28:11.623Z,5.57
2018-11-06T11:30:40.000Z,7.30
2018-11-06T11:33:08.269Z,7.03
2018-11-06T11:35:36.461Z,7.13
2018-11-06T11:38:04.725Z,6.13
2018-11-06T11:40:32.947Z,8.00
2018-11-06T11:43:01.190Z,7.60
2018-11-06T11:45:29.416Z,7.87
2018-11-06T11:47:57.676Z,6.00
2018-11-06T11:50:25.895Z,6.43
2018-11-06T11:52:54.129Z,6.93
2018-11-06T11:55:22.346Z,8.47
2018-11-06T11:57:50.584Z,6.87
2018-11-06T12:00:19.820Z,6.60
2018-11-06T12:02:49.663Z,5.57
2018-11-06T12:05:17.963Z,5.67
2018-11-06T12:07:46.154Z,4.60
2018-11-06T12:10:14.389Z,6.20
2018-11-06T12:12:42.784Z,7.30
2018-11-06T12:15:13.340Z,5.33
2018-11-06T12:17:42.292Z,4.67
2018-11-06T12:20:11.175Z,5.70
2018-11-06T12:22:39.974Z,4.37
2018-11-06T12:25:08.633Z,6.37
2018-11-06T12:27:37.131Z,6.30
2018-11-06T12:30:06.911Z,5.20
2018-11-06T12:32:35.213Z,7.57
2018-11-06T12:35:03.402Z,5.57
2018-11-06T12:37:31.681Z,5.13
2018-11-06T12:39:59.905Z,6.30
2018-11-06T12:42:28.174Z,4.47
2018-11-06T12:44:56.424Z,4.53
2018-11-06T12:47:24.792Z,6.00
2018-11-06T12:49:52.991Z,5.23
2018-11-06T12:52:21.188Z,4.90
2018-11-06T12:54:49.414Z,4.67
2018-11-06T12:57:17.588Z,3.90
2018-11-06T12:59:45.969Z,3.93
2018-11-06T13:02:14.204Z,5.00
2018-11-06T13:04:43.032Z,5.27
2018-11-06T13:07:11.317Z,4.50
2018-11-06T13:09:39.535Z,4.40
2018-11-06T13:12:07.932Z,3.77
2018-11-06T13:14:36.222Z,4.13
2018-11-06T13:17:04.541Z,5.53
2018-11-06T13:19:32.704Z,4.03
2018-11-06T13:22:00.923Z,3.70
2018-11-06T13:24:29.121Z,4.27
2018-11-06T13:26:57.383Z,3.60
2018-11-06T13:29:26.881Z,3.57
2018-11-06T13:31:55.134Z,4.70
2018-11-06T13:34:23.380Z,5.27
2018-11-06T13:36:51.710Z,3.20
2018-11-06T13:39:20.005Z,6.13
2018-11-06T13:41:48.240Z,3.50
2018-11-06T13:44:16.633Z,5.50
2018-11-06T13:46:44.847Z,3.20
2018-11-06T13:49:13.064Z,5.33
2018-11-06T13:51:41.271Z,3.13
2018-11-06T13:54:09.533Z,2.93
2018-11-06T13:56:37.750Z,4.13
2018-11-06T13:59:05.991Z,5.17
2018-11-06T14:01:34.204Z,7.03
2018-11-06T14:04:02.376Z,4.47
2018-11-06T14:06:30.610Z,6.90
2018-11-06T14:08:58.814Z,4.03
2018-11-06T14:11:27.010Z,6.43
2018-11-06T14:13:55.247Z,3.70
2018-11-06T14:16:23.448Z,2.73
2018-11-06T14:18:51.683Z,3.10
2018-11-06T14:21:19.921Z,2.80
2018-11-06T14:23:48.110Z,3.83
2018-11-06T14:26:16.323Z,2.90
2018-11-06T14:28:44.781Z,2.90
2018-11-06T14:31:13.020Z,4.87
2018-11-06T14:33:41.229Z,2.60
2018-11-06T14:36:09.429Z,3.87
2018-11-06T14:38:37.682Z,4.07
2018-11-06T14:41:05.926Z,3.83
2018-11-06T14:43:40.744Z,3.27
2018-11-06T14:46:09.012Z,3.17
2018-11-06T14:48:37.387Z,4.47
2018-11-06T14:51:06.103Z,2.57
2018-11-06T14:53:36.769Z,2.37
2018-11-06T14:56:05.374Z,3.30
2018-11-06T14:58:33.727Z,4.23
2018-11-06T15:01:01.947Z,5.10
2018-11-06T15:03:30.188Z,3.00
2018-11-06T15:05:58.426Z,5.83
2018-11-06T15:08:26.636Z,6.50
2018-11-06T15:10:55.618Z,4.87
2018-11-06T15:13:23.833Z,6.20
2018-11-06T15:15:52.076Z,7.37
2018-11-06T15:18:20.299Z,4.83
2018-11-06T15:20:51.022Z,5.57
2018-11-06T15:23:19.221Z,4.47
2018-11-06T15:25:47.436Z,3.57
2018-11-06T15:28:15.669Z,3.50
2018-11-06T15:30:43.906Z,4.90
2018-11-06T15:33:12.251Z,3.07
2018-11-06T15:35:40.505Z,5.70
2018-11-06T15:38:08.719Z,3.90
2018-11-06T15:40:36.930Z,4.50
2018-11-06T15:43:05.163Z,4.03
2018-11-06T15:45:33.378Z,3.03
2018-11-06T15:48:01.607Z,3.00
2018-11-06T15:50:30.301Z,2.40
2018-11-06T15:52:59.155Z,3.80
2018-11-06T15:55:27.350Z,3.00
2018-11-06T15:57:55.563Z,3.13
2018-11-06T16:00:24.053Z,2.90
2018-11-06T16:02:52.530Z,3.17
2018-11-06T16:05:20.800Z,3.27
2018-11-06T16:07:49.499Z,4.20
2018-11-06T16:10:19.009Z,4.70
2018-11-06T16:12:50.320Z,4.07
2018-11-06T16:15:18.666Z,4.90
2018-11-06T16:17:47.335Z,3.57
2018-11-06T16:20:16.841Z,3.80
2018-11-06T16:22:45.158Z,3.83
2018-11-06T16:25:14.675Z,4.17
2018-11-06T16:27:43.296Z,3.67
2018-11-06T16:30:16.650Z,3.00
2018-11-06T16:32:44.983Z,3.53
2018-11-06T16:35:14.495Z,3.33
2018-11-06T16:37:43.063Z,2.90
2018-11-06T16:40:11.919Z,3.50
2018-11-06T16:42:40.668Z,3.00
2018-11-06T16:45:12.428Z,3.53
2018-11-06T16:47:40.811Z,5.10
2018-11-06T16:50:10.544Z,4.37
2018-11-06T16:52:38.836Z,5.20
2018-11-06T16:55:07.657Z,5.03
2018-11-06T16:57:35.958Z,6.90
2018-11-06T17:00:05.169Z,5.57
2018-11-06T17:02:33.358Z,4.87
2018-11-06T17:05:01.643Z,4.73
2018-11-06T17:07:29.832Z,6.03
2018-11-06T17:09:58.124Z,7.37
2018-11-06T17:12:26.402Z,6.83
2018-11-06T17:14:54.628Z,6.20
2018-11-06T17:17:22.966Z,5.73
2018-11-06T17:19:51.183Z,5.20
2018-11-06T17:22:19.414Z,6.10
2018-11-06T17:24:48.267Z,5.70
2018-11-06T17:27:16.512Z,4.87
2018-11-06T17:29:44.822Z,11.17
2018-11-06T17:32:13.084Z,10.43
2018-11-06T17:34:41.302Z,5.90
2018-11-06T17:37:09.522Z,6.27
2018-11-06T17:39:37.910Z,5.50
2018-11-06T17:42:06.038Z,7.63
2018-11-06T17:44:34.356Z,6.83
2018-11-06T17:47:02.589Z,5.03
2018-11-06T17:49:30.830Z,6.27
2018-11-06T17:51:59.078Z,5.23
2018-11-06T17:54:27.338Z,6.07
2018-11-06T17:56:55.761Z,5.70
2018-11-06T17:59:25.152Z,5.93
2018-11-06T18:01:53.465Z,4.67
2018-11-06T18:04:21.960Z,5.03
2018-11-06T18:06:51.220Z,6.37
2018-11-06T18:09:19.451Z,5.63
2018-11-06T18:11:47.684Z,6.13
2018-11-06T18:14:15.939Z,5.93
2018-11-06T18:16:44.163Z,7.40
2018-11-06T18:19:12.343Z,6.57
2018-11-06T18:21:40.627Z,7.77
2018-11-06T18:24:08.845Z,6.30
2018-11-06T18:26:37.060Z,7.73
2018-11-06T18:29:06.069Z,5.67
2018-11-06T18:31:34.415Z,6.60
2018-11-06T18:34:02.556Z,7.23
2018-11-06T18:36:30.787Z,7.40
2018-11-06T18:38:59.055Z,8.10
2018-11-06T18:41:27.233Z,8.00
2018-11-06T18:43:55.619Z,7.13
2018-11-06T18:46:23.874Z,6.63
2018-11-06T18:48:52.501Z,7.33
2018-11-06T18:51:20.731Z,7.33
2018-11-06T18:53:48.935Z,7.93
2018-11-06T18:56:17.132Z,8.87
2018-11-06T18:58:45.397Z,9.93
2018-11-06T19:01:13.623Z,7.67
2018-11-06T19:03:41.930Z,10.20
2018-11-06T19:06:10.187Z,8.10
2018-11-06T19:08:38.425Z,6.90
2018-11-06T19:11:06.688Z,6.23
2018-11-06T19:13:34.942Z,7.90
2018-11-06T19:16:04.199Z,6.80
2018-11-06T19:18:32.419Z,6.80
2018-11-06T19:21:00.690Z,7.50
2018-11-06T19:23:28.984Z,7.30
2018-11-06T19:25:57.205Z,8.20
2018-11-06T19:28:25.415Z,6.53
2018-11-06T19:30:53.873Z,6.07
2018-11-06T19:33:22.132Z,7.43
2018-11-06T19:35:50.347Z,6.65
2018-11-06T19:38:18.568Z,5.73
2018-11-06T19:40:46.807Z,6.83
2018-11-06T19:43:15.034Z,6.47
2018-11-06T19:45:43.383Z,11.60
2018-11-06T19:48:11.627Z,6.10
2018-11-06T19:50:39.905Z,7.83
2018-11-06T19:53:08.149Z,8.07
2018-11-06T19:55:36.920Z,6.00
2018-11-06T19:58:05.438Z,7.40
2018-11-06T20:00:33.635Z,6.90
2018-11-06T20:03:01.952Z,7.37
2018-11-06T20:05:30.238Z,6.13
2018-11-06T20:07:58.386Z,6.90
2018-11-06T20:10:26.666Z,8.10
2018-11-06T20:12:55.650Z,5.63
2018-11-06T20:15:24.062Z,7.60
2018-11-06T20:17:52.379Z,5.67
2018-11-06T20:20:22.072Z,6.77
2018-11-06T20:22:50.362Z,4.87
2018-11-06T20:25:18.595Z,7.40
2018-11-06T20:27:46.805Z,6.77
2018-11-06T20:30:16.933Z,6.13
2018-11-06T20:32:45.213Z,5.27
2018-11-06T20:35:13.777Z,6.93
2018-11-06T20:37:42.052Z,5.13
2018-11-06T20:40:13.442Z,4.63
2018-11-06T20:42:42.061Z,5.00
2018-11-06T20:45:11.780Z,5.70
2018-11-06T20:47:40.203Z,6.13
2018-11-06T20:50:12.567Z,5.10
2018-11-06T20:52:40.924Z,5.63
2018-11-06T20:55:10.058Z,4.53
2018-11-06T20:57:38.352Z,4.60
2018-11-06T21:00:11.968Z,5.60
2018-11-06T21:02:40.222Z,6.03
2018-11-06T21:05:08.510Z,5.67
2018-11-06T21:07:36.684Z,6.33
2018-11-06T21:10:05.222Z,6.03
2018-11-06T21:12:33.430Z,6.40
2018-11-06T21:15:02.469Z,6.87
2018-11-06T21:17:30.680Z,7.53
2018-11-06T21:19:58.990Z,5.07
2018-11-06T21:22:27.150Z,6.60
2018-11-06T21:24:55.697Z,6.37
2018-11-06T21:27:23.921Z,5.80
2018-11-06T21:29:52.099Z,5.53
2018-11-06T21:32:20.352Z,8.83
2018-11-06T21:34:48.558Z,6.80
2018-11-06T21:37:16.770Z,6.23
2018-11-06T21:39:45.016Z,9.43
2018-11-06T21:42:13.343Z,7.77
2018-11-06T21:44:41.497Z,9.20
2018-11-06T21:47:10.357Z,9.40
2018-11-06T21:49:38.567Z,6.63
2018-11-06T21:52:06.835Z,6.33
2018-11-06T21:54:34.981Z,7.50
2018-11-06T21:57:03.213Z,8.23
2018-11-06T21:59:32.893Z,7.00
2018-11-06T22:02:01.123Z,6.73
2018-11-06T22:04:29.351Z,7.17
2018-11-06T22:06:57.650Z,6.27
2018-11-06T22:09:25.912Z,7.93
2018-11-06T22:11:54.223Z,7.50
2018-11-06T22:14:22.385Z,6.97
2018-11-06T22:16:50.611Z,8.03
2018-11-06T22:19:18.825Z,6.17
2018-11-06T22:21:47.021Z,7.43
2018-11-06T22:24:15.225Z,5.47
2018-11-06T22:26:43.434Z,9.80
2018-11-06T22:29:11.711Z,6.77
2018-11-06T22:31:40.108Z,8.97
2018-11-06T22:34:08.216Z,7.07
2018-11-06T22:36:36.400Z,8.07
2018-11-06T22:39:07.228Z,6.67
2018-11-06T22:41:36.282Z,6.00
2018-11-06T22:44:04.534Z,5.70
2018-11-06T22:46:32.746Z,6.53
2018-11-06T22:49:01.005Z,6.20
2018-11-06T22:51:29.213Z,7.47
2018-11-06T22:53:57.435Z,6.53
2018-11-06T22:56:25.692Z,5.27
2018-11-06T22:58:54.104Z,4.33
2018-11-06T23:01:25.238Z,7.13
2018-11-06T23:03:54.263Z,6.87
2018-11-06T23:06:22.523Z,7.97
2018-11-06T23:08:50.741Z,8.63
2018-11-06T23:11:19.033Z,7.03
2018-11-06T23:13:47.236Z,6.90
2018-11-06T23:16:15.473Z,6.73
2018-11-06T23:18:43.700Z,6.53
2018-11-06T23:21:12.457Z,7.23
2018-11-06T23:23:40.839Z,6.20
2018-11-06T23:26:09.974Z,5.47
2018-11-06T23:28:38.166Z,6.27
2018-11-06T23:31:06.419Z,6.83
2018-11-06T23:33:34.601Z,7.77
2018-11-06T23:36:02.835Z,5.63
2018-11-06T23:38:31.064Z,5.80
2018-11-06T23:40:59.917Z,5.87
2018-11-06T23:43:28.174Z,8.50
2018-11-06T23:45:56.386Z,9.07
2018-11-06T23:48:24.606Z,5.10
2018-11-06T23:50:52.840Z,5.30
2018-11-06T23:53:21.060Z,6.13
2018-11-06T23:55:49.221Z,5.77
2018-11-06T23:58:17.452Z,6.60
